Time;durP1;ratioP1;P1;durP2;ratioP2;P2;SDS_P1;SDS_P2;PMS_P1;PMS_P2;Temp;Humidity;BMP_temperature;BMP_pressure;BME280_temperature;BME280_humidity;BME280_pressure;Samples;Min_cycle;Max_cycle;Signal;HPM_P1;HPM_P2
2022/04/23 00:01:16;;;;;;;14.80;13.60;;;8.70;99.90;;;;;;6325483;27;20372;-55
2022/04/23 00:04:20;;;;;;;14.60;13.50;;;8.70;99.90;;;;;;6335048;28;20224;-54
2022/04/23 00:07:22;;;;;;;16.13;14.57;;;8.70;99.90;;;;;;6309874;28;20248;-55
2022/04/23 00:10:25;;;;;;;17.57;15.87;;;8.60;99.90;;;;;;6308078;28;20266;-54
2022/04/23 00:13:28;;;;;;;16.23;14.87;;;8.50;99.90;;;;;;6309964;28;20319;-55
2022/04/23 00:16:31;;;;;;;15.77;14.43;;;8.40;99.90;;;;;;6312172;28;20247;-56
2022/04/23 00:19:35;;;;;;;15.57;14.27;;;8.50;99.90;;;;;;6331928;27;20235;-56
2022/04/23 00:22:38;;;;;;;16.03;14.80;;;8.40;99.90;;;;;;6303719;27;20243;-53
2022/04/23 00:25:44;;;;;;;17.13;15.70;;;8.40;99.90;;;;;;6332912;27;20262;-55
2022/04/23 00:28:46;;;;;;;16.47;15.00;;;8.40;99.90;;;;;;6333178;27;20321;-56
2022/04/23 00:31:49;;;;;;;17.10;15.70;;;8.40;99.90;;;;;;6334894;27;20244;-55
2022/04/23 00:34:53;;;;;;;16.43;15.13;;;8.40;99.90;;;;;;6335311;27;20239;-55
2022/04/23 00:37:56;;;;;;;16.83;15.47;;;8.30;99.90;;;;;;6304689;27;20228;-55
2022/04/23 00:40:59;;;;;;;17.57;15.97;;;8.30;99.90;;;;;;6308332;27;20699;-56
2022/04/23 00:44:02;;;;;;;16.23;14.77;;;8.30;99.90;;;;;;6308010;28;20617;-55
2022/04/23 00:47:05;;;;;;;17.67;16.07;;;8.30;99.90;;;;;;6285325;28;20371;-55
2022/04/23 00:50:11;;;;;;;17.57;16.17;;;8.20;99.90;;;;;;6297368;28;20249;-55
2022/04/23 00:53:13;;;;;;;17.40;15.90;;;8.20;99.90;;;;;;6309127;28;20418;-55
2022/04/23 00:56:17;;;;;;;16.27;14.97;;;8.20;99.90;;;;;;6295328;28;20551;-56
2022/04/23 00:59:20;;;;;;;17.03;15.60;;;8.20;99.90;;;;;;6308074;28;20720;-55
2022/04/23 01:02:23;;;;;;;16.80;15.33;;;8.10;99.90;;;;;;6306932;28;20707;-56
2022/04/23 01:05:27;;;;;;;18.50;16.93;;;8.10;99.90;;;;;;6333669;28;20242;-56
2022/04/23 01:08:33;;;;;;;17.40;15.90;;;8.10;99.90;;;;;;6331064;28;20319;-56
2022/04/23 01:11:36;;;;;;;18.23;16.67;;;8.10;99.90;;;;;;6333902;27;20232;-55
2022/04/23 01:14:57;;;;;;;16.17;14.87;;;8.00;99.90;;;;;;6325992;28;20250;-54
2022/04/23 01:18:00;;;;;;;16.43;15.03;;;8.00;99.90;;;;;;6320664;28;20238;-55
2022/04/23 01:21:05;;;;;;;16.43;15.07;;;8.00;99.90;;;;;;6329659;27;20713;-55
2022/04/23 01:24:09;;;;;;;16.33;15.13;;;8.00;99.90;;;;;;6328138;28;20329;-56
2022/04/23 01:27:12;;;;;;;17.70;16.07;;;7.90;99.90;;;;;;6331778;27;20792;-55
2022/04/23 01:30:16;;;;;;;17.40;15.90;;;7.90;99.90;;;;;;6335222;28;20236;-55
2022/04/23 01:33:19;;;;;;;18.03;16.43;;;7.90;99.90;;;;;;6331640;27;20676;-56
2022/04/23 01:36:23;;;;;;;16.80;15.50;;;7.80;99.90;;;;;;6336637;28;20234;-54
2022/04/23 01:39:26;;;;;;;17.87;16.43;;;7.80;99.90;;;;;;6333707;28;20299;-53
2022/04/23 01:42:29;;;;;;;17.67;16.13;;;7.80;99.90;;;;;;6307051;28;20459;-53
2022/04/23 01:45:31;;;;;;;17.40;16.00;;;7.80;99.90;;;;;;6334804;28;20545;-55
2022/04/23 01:48:34;;;;;;;18.70;17.10;;;7.80;99.90;;;;;;6332565;28;20236;-55
2022/04/23 01:51:38;;;;;;;17.37;15.97;;;7.80;99.90;;;;;;6333832;28;20808;-55
2022/04/23 01:54:41;;;;;;;17.87;16.37;;;7.70;99.90;;;;;;6329649;28;20439;-56
2022/04/23 01:57:44;;;;;;;18.17;16.57;;;7.90;99.90;;;;;;6325787;28;20311;-55
2022/04/23 02:00:47;;;;;;;18.37;16.93;;;7.70;99.90;;;;;;6318780;28;20335;-55
2022/04/23 02:03:51;;;;;;;17.57;16.07;;;7.70;99.90;;;;;;6333012;28;20403;-54
2022/04/23 02:06:55;;;;;;;17.83;16.23;;;7.70;99.90;;;;;;6333106;27;20607;-54
2022/04/23 02:09:58;;;;;;;17.23;15.73;;;7.70;99.90;;;;;;6329479;28;20654;-55
2022/04/23 02:13:01;;;;;;;17.27;15.90;;;7.70;99.90;;;;;;6321192;28;20368;-54
2022/04/23 02:16:04;;;;;;;17.93;16.53;;;7.70;99.90;;;;;;6333429;28;20236;-55
2022/04/23 02:19:07;;;;;;;18.07;16.47;;;7.60;99.90;;;;;;6326023;28;20239;-55
2022/04/23 02:22:11;;;;;;;18.37;16.47;;;7.60;99.90;;;;;;6332005;28;20277;-56
2022/04/23 02:25:15;;;;;;;17.30;15.80;;;7.70;99.90;;;;;;6330705;28;20246;-55
2022/04/23 02:28:18;;;;;;;17.20;15.77;;;7.70;99.90;;;;;;6323351;28;20716;-54
2022/04/23 02:31:20;;;;;;;16.37;14.80;;;7.60;99.90;;;;;;6333690;28;20250;-56
2022/04/23 02:34:23;;;;;;;16.73;15.43;;;7.60;99.90;;;;;;6331871;28;20404;-54
2022/04/23 02:37:31;;;;;;;16.37;14.97;;;7.50;99.90;;;;;;6323175;28;20248;-55
2022/04/23 02:40:34;;;;;;;17.40;15.90;;;7.60;99.90;;;;;;6324195;28;20377;-55
2022/04/23 02:43:38;;;;;;;17.37;15.87;;;7.60;99.90;;;;;;6332556;28;20324;-56
2022/04/23 02:46:41;;;;;;;16.80;15.40;;;7.60;99.90;;;;;;6319066;28;20747;-57
2022/04/23 02:49:43;;;;;;;16.67;15.10;;;7.50;99.90;;;;;;6331338;28;20629;-55
2022/04/23 02:52:47;;;;;;;16.90;15.53;;;7.50;99.90;;;;;;6322454;28;20939;-54
2022/04/23 02:55:52;;;;;;;15.20;14.10;;;7.50;99.90;;;;;;6321086;28;20481;-56
2022/04/23 02:58:55;;;;;;;15.90;14.60;;;7.50;99.90;;;;;;6322548;28;20255;-55
2022/04/23 03:01:57;;;;;;;17.03;15.53;;;7.50;99.90;;;;;;6320666;28;20394;-55
2022/04/23 03:05:00;;;;;;;16.23;14.87;;;7.40;99.90;;;;;;6332395;28;20621;-53
2022/04/23 03:08:05;;;;;;;16.37;15.07;;;7.50;99.90;;;;;;6319979;28;20720;-54
2022/04/23 03:11:08;;;;;;;16.23;14.83;;;7.50;99.90;;;;;;6330506;28;20353;-59
2022/04/23 03:14:11;;;;;;;16.60;14.93;;;7.50;99.90;;;;;;6333201;28;20311;-60
2022/04/23 03:17:13;;;;;;;17.07;15.67;;;7.40;99.90;;;;;;6314826;28;20532;-54
2022/04/23 03:20:16;;;;;;;16.27;14.97;;;7.40;99.90;;;;;;6329021;27;20569;-55
2022/04/23 03:23:20;;;;;;;16.43;15.13;;;7.40;99.90;;;;;;6323043;28;20243;-55
2022/04/23 03:26:23;;;;;;;15.77;14.47;;;7.30;99.90;;;;;;6330170;28;20750;-54
2022/04/23 03:29:26;;;;;;;16.27;14.87;;;7.60;99.90;;;;;;6334924;28;20228;-55
2022/04/23 03:32:29;;;;;;;15.93;14.57;;;7.30;99.90;;;;;;6323920;27;20602;-55
2022/04/23 03:35:31;;;;;;;17.33;15.93;;;7.40;99.90;;;;;;6335374;28;20314;-55
2022/04/23 03:38:36;;;;;;;16.03;14.80;;;7.20;99.90;;;;;;6337313;27;20320;-55
2022/04/23 03:41:39;;;;;;;18.27;16.47;;;7.20;99.90;;;;;;6332515;27;20487;-56
2022/04/23 03:44:42;;;;;;;17.77;16.00;;;7.20;99.90;;;;;;6328647;27;20356;-57
2022/04/23 03:47:45;;;;;;;16.47;15.17;;;7.20;99.90;;;;;;6323386;27;20236;-56
2022/04/23 03:50:48;;;;;;;18.17;16.57;;;7.20;99.90;;;;;;6334495;28;20372;-56
2022/04/23 03:53:52;;;;;;;17.07;15.60;;;7.20;99.90;;;;;;6330933;27;20504;-55
2022/04/23 03:56:55;;;;;;;16.93;15.43;;;7.40;99.90;;;;;;6332589;28;20466;-55
2022/04/23 03:59:58;;;;;;;15.33;13.97;;;7.10;99.90;;;;;;6337945;27;20819;-56
2022/04/23 04:03:01;;;;;;;17.27;15.77;;;7.30;99.90;;;;;;6331927;28;20297;-55
2022/04/23 04:06:04;;;;;;;16.83;15.53;;;7.30;99.90;;;;;;6335179;27;20389;-56
2022/04/23 04:09:08;;;;;;;16.70;15.20;;;7.00;99.90;;;;;;6338441;27;20235;-55
2022/04/23 04:12:11;;;;;;;16.97;15.33;;;7.10;99.90;;;;;;6334548;27;20224;-54
2022/04/23 04:15:15;;;;;;;15.97;14.57;;;7.00;99.90;;;;;;6324328;28;20326;-55
2022/04/23 04:18:18;;;;;;;17.60;16.13;;;7.00;99.90;;;;;;6333723;27;20235;-55
2022/04/23 04:21:21;;;;;;;17.20;15.47;;;7.00;99.90;;;;;;6341529;27;20281;-55
2022/04/23 04:24:27;;;;;;;17.00;15.53;;;7.00;99.90;;;;;;6333382;27;20232;-55
2022/04/23 04:27:30;;;;;;;17.33;15.47;;;6.90;99.90;;;;;;6335530;27;20432;-55
2022/04/23 04:31:47;;;;;;;17.47;16.07;;;7.00;99.90;;;;;;6333816;27;20689;-54
2022/04/23 04:33:55;;;;;;;18.00;16.30;;;7.00;99.90;;;;;;6330291;27;20361;-55
2022/04/23 04:37:05;;;;;;;18.17;16.60;;;7.00;99.90;;;;;;6333415;28;20792;-54
2022/04/23 04:40:11;;;;;;;16.97;15.47;;;7.10;99.90;;;;;;6329838;28;20437;-55
2022/04/23 04:43:14;;;;;;;16.20;14.87;;;7.10;99.90;;;;;;6336934;27;20814;-54
2022/04/23 04:46:16;;;;;;;17.50;15.93;;;7.10;99.90;;;;;;6342312;27;20856;-55
2022/04/23 04:49:22;;;;;;;17.03;15.53;;;7.20;99.90;;;;;;6336269;27;20232;-54
2022/04/23 04:52:25;;;;;;;16.43;15.03;;;7.20;99.90;;;;;;6331053;28;20323;-56
2022/04/23 04:55:34;;;;;;;16.00;14.63;;;7.30;99.90;;;;;;6332756;27;20251;-54
2022/04/23 04:58:36;;;;;;;16.33;14.87;;;7.50;99.90;;;;;;6331793;27;20232;-54
2022/04/23 05:01:39;;;;;;;17.10;15.33;;;7.60;99.90;;;;;;6335302;27;20511;-55
2022/04/23 05:04:42;;;;;;;16.83;15.23;;;7.50;99.90;;;;;;6329310;27;20603;-57
2022/04/23 05:07:45;;;;;;;16.47;14.97;;;7.50;99.90;;;;;;6330627;27;20314;-56
2022/04/23 05:10:49;;;;;;;17.07;15.67;;;7.50;99.90;;;;;;6329776;27;20433;-56
2022/04/23 05:13:52;;;;;;;16.83;15.30;;;7.60;99.90;;;;;;6340274;27;20570;-54
2022/04/23 05:16:55;;;;;;;16.37;14.93;;;7.60;99.90;;;;;;6332001;27;20345;-57
2022/04/23 05:19:58;;;;;;;16.57;14.87;;;7.70;99.90;;;;;;6334992;27;20228;-52
2022/04/23 05:23:00;;;;;;;15.53;14.17;;;7.80;99.90;;;;;;6333100;28;20728;-54
2022/04/23 05:26:05;;;;;;;16.40;14.90;;;7.90;99.90;;;;;;6329162;27;20390;-56
2022/04/23 05:29:08;;;;;;;16.27;14.80;;;8.00;99.90;;;;;;6336260;27;20259;-56
2022/04/23 05:32:11;;;;;;;16.10;14.60;;;8.10;99.90;;;;;;6339792;27;21110;-54
2022/04/23 05:35:14;;;;;;;16.57;14.97;;;8.20;99.90;;;;;;6336615;27;20597;-55
2022/04/23 05:38:19;;;;;;;16.03;14.53;;;8.30;99.90;;;;;;6335207;27;20511;-56
2022/04/23 05:41:23;;;;;;;15.77;14.47;;;8.50;99.90;;;;;;6338846;27;20231;-55
2022/04/23 05:44:26;;;;;;;15.37;13.97;;;8.60;99.90;;;;;;6333910;28;20571;-55
2022/04/23 05:47:29;;;;;;;15.10;13.80;;;8.80;99.90;;;;;;6330465;27;20351;-55
2022/04/23 05:50:31;;;;;;;15.33;14.03;;;8.90;99.90;;;;;;6331734;28;20224;-54
2022/04/23 05:53:34;;;;;;;15.20;13.90;;;9.10;99.90;;;;;;6338130;27;20442;-56
2022/04/23 05:56:38;;;;;;;14.83;13.63;;;9.30;99.90;;;;;;6329754;28;20723;-56
2022/04/23 05:59:41;;;;;;;14.97;13.67;;;9.50;99.90;;;;;;6334482;27;20304;-55
2022/04/23 06:02:44;;;;;;;13.77;12.57;;;9.70;99.90;;;;;;6336735;27;20322;-55
2022/04/23 06:05:47;;;;;;;14.73;13.40;;;9.90;99.90;;;;;;6333180;28;20236;-55
2022/04/23 06:08:50;;;;;;;13.13;12.03;;;10.20;99.90;;;;;;6329441;27;20727;-56
2022/04/23 06:11:54;;;;;;;14.67;13.43;;;10.50;99.90;;;;;;6331296;27;20300;-55
2022/04/23 06:14:56;;;;;;;13.97;12.77;;;10.80;99.90;;;;;;6328108;27;20228;-54
2022/04/23 06:17:59;;;;;;;13.57;12.50;;;11.00;99.90;;;;;;6329590;28;20228;-55
2022/04/23 06:21:01;;;;;;;13.67;12.53;;;11.30;99.90;;;;;;6333882;28;20227;-55
2022/04/23 06:24:05;;;;;;;13.80;12.80;;;11.50;99.90;;;;;;6326785;27;20354;-56
2022/04/23 06:27:09;;;;;;;12.93;11.93;;;11.80;99.90;;;;;;6320523;27;20712;-54
2022/04/23 06:30:13;;;;;;;13.87;12.77;;;11.90;99.90;;;;;;6328192;27;20242;-58
2022/04/23 06:33:16;;;;;;;13.70;12.40;;;11.90;99.90;;;;;;6325198;28;20603;-53
2022/04/23 06:36:18;;;;;;;13.97;12.57;;;12.00;99.90;;;;;;6337882;28;20724;-55
2022/04/23 06:39:21;;;;;;;12.80;11.90;;;12.10;99.90;;;;;;6333057;28;20350;-54
2022/04/23 06:42:25;;;;;;;12.93;11.77;;;12.20;99.90;;;;;;6332232;27;20326;-54
2022/04/23 06:45:28;;;;;;;12.90;11.90;;;12.40;99.90;;;;;;6322282;28;20227;-56
2022/04/23 06:48:31;;;;;;;13.13;12.13;;;12.50;99.90;;;;;;6332438;28;20354;-54
2022/04/23 06:51:37;;;;;;;12.97;11.97;;;12.70;99.90;;;;;;6327530;28;20387;-55
2022/04/23 06:54:39;;;;;;;12.93;11.83;;;12.80;99.90;;;;;;6331521;27;20863;-56
2022/04/23 06:57:45;;;;;;;12.87;11.73;;;12.90;99.90;;;;;;6345061;27;20264;-55
2022/04/23 07:00:47;;;;;;;13.10;11.93;;;12.90;99.90;;;;;;6336666;27;20236;-56
2022/04/23 07:03:50;;;;;;;12.90;11.90;;;13.00;99.90;;;;;;6337292;27;20228;-55
2022/04/23 07:06:53;;;;;;;12.00;11.10;;;13.10;99.90;;;;;;6327938;28;20295;-56
2022/04/23 07:09:55;;;;;;;11.97;11.07;;;13.20;99.90;;;;;;6327761;27;20329;-54
2022/04/23 07:13:00;;;;;;;11.77;10.93;;;13.30;99.90;;;;;;6342237;27;20308;-54
2022/04/23 07:16:04;;;;;;;11.27;10.20;;;13.30;99.90;;;;;;6328564;27;20305;-55
2022/04/23 07:19:07;;;;;;;10.43;9.67;;;13.30;99.90;;;;;;6338660;27;20639;-56
2022/04/23 07:22:10;;;;;;;11.37;10.47;;;13.30;99.90;;;;;;6338458;27;20857;-55
2022/04/23 07:25:14;;;;;;;9.97;9.33;;;13.30;99.90;;;;;;6333006;27;20381;-56
2022/04/23 07:28:18;;;;;;;10.63;9.93;;;13.40;99.90;;;;;;6338254;27;20243;-55
2022/04/23 07:31:21;;;;;;;11.17;10.27;;;13.50;99.90;;;;;;6338763;27;20232;-53
2022/04/23 07:37:44;;;;;;;11.03;10.27;;;13.80;99.90;;;;;;6309927;28;20705;-58
2022/04/23 07:40:47;;;;;;;11.00;10.20;;;13.80;99.90;;;;;;6314679;28;20246;-55
2022/04/23 07:43:51;;;;;;;11.67;10.87;;;13.80;99.90;;;;;;6313897;28;20398;-54
2022/04/23 07:46:54;;;;;;;11.57;10.77;;;13.80;99.90;;;;;;6309912;28;20232;-55
2022/04/23 07:49:58;;;;;;;10.80;10.00;;;13.70;99.90;;;;;;6305152;28;20310;-55
2022/04/23 07:53:01;;;;;;;11.13;10.30;;;13.90;99.90;;;;;;6310299;28;20511;-55
2022/04/23 07:56:05;;;;;;;11.40;10.53;;;13.90;99.90;;;;;;6323539;28;20340;-55
2022/04/23 07:59:09;;;;;;;11.53;10.60;;;14.00;99.90;;;;;;6338552;27;20708;-56
2022/04/23 08:02:12;;;;;;;11.77;10.77;;;14.10;99.90;;;;;;6336287;27;20232;-55
2022/04/23 08:05:15;;;;;;;11.20;10.40;;;14.10;99.90;;;;;;6340572;27;20636;-56
2022/04/23 08:08:19;;;;;;;10.63;10.00;;;14.20;99.90;;;;;;6336195;27;20232;-54
2022/04/23 08:11:22;;;;;;;9.73;9.13;;;14.30;99.90;;;;;;6332825;28;20537;-55
2022/04/23 08:14:26;;;;;;;10.77;9.93;;;14.40;99.90;;;;;;6339281;27;20240;-54
2022/04/23 08:17:29;;;;;;;10.70;9.80;;;14.50;99.90;;;;;;6319315;28;20709;-55
2022/04/23 08:20:32;;;;;;;9.93;9.33;;;14.50;99.90;;;;;;6313369;27;20277;-55
2022/04/23 08:23:35;;;;;;;9.53;8.93;;;14.50;99.90;;;;;;6307295;28;20329;-56
2022/04/23 08:26:37;;;;;;;10.23;9.43;;;14.50;99.90;;;;;;6310700;27;20573;-52
2022/04/23 08:33:03;;;;;;;10.13;9.43;;;14.60;99.90;;;;;;6335836;27;20727;-55
2022/04/23 08:36:06;;;;;;;9.53;8.93;;;14.60;99.90;;;;;;6335522;27;20348;-54
2022/04/23 08:39:09;;;;;;;9.87;9.27;;;14.80;99.90;;;;;;6335431;28;20440;-56
2022/04/23 08:42:12;;;;;;;9.80;9.00;;;14.80;99.90;;;;;;6337345;27;20323;-54
2022/04/23 08:45:16;;;;;;;9.83;9.13;;;14.80;99.90;;;;;;6336822;27;20404;-56
2022/04/23 08:48:19;;;;;;;9.93;9.13;;;14.80;99.90;;;;;;6336014;27;20223;-56
2022/04/23 08:51:24;;;;;;;9.20;8.57;;;14.80;99.90;;;;;;6335066;27;20310;-57
2022/04/23 08:54:27;;;;;;;8.93;8.43;;;14.90;99.90;;;;;;6320032;28;20369;-56
2022/04/23 08:57:30;;;;;;;8.77;8.13;;;15.00;99.90;;;;;;6337700;27;20238;-56
2022/04/23 09:00:34;;;;;;;8.80;8.30;;;15.10;99.90;;;;;;6334950;27;20377;-54
2022/04/23 09:03:36;;;;;;;8.60;8.00;;;15.20;99.90;;;;;;6336741;27;20281;-54
2022/04/23 09:06:42;;;;;;;9.00;8.43;;;15.30;99.90;;;;;;6333601;28;20224;-55
2022/04/23 09:09:48;;;;;;;8.10;7.67;;;15.30;99.90;;;;;;6326064;27;20401;-54
2022/04/23 09:12:56;;;;;;;9.07;8.37;;;15.40;99.90;;;;;;6337175;27;20242;-57
2022/04/23 09:26:16;;;;;;;7.90;7.40;;;15.80;99.90;;;;;;6335429;27;20238;-54
2022/04/23 09:29:19;;;;;;;7.13;6.73;;;15.90;99.90;;;;;;6333418;27;20223;-56
2022/04/23 09:32:23;;;;;;;7.93;7.50;;;15.80;99.90;;;;;;6335398;27;20319;-54
2022/04/23 09:35:26;;;;;;;6.87;6.50;;;15.90;99.90;;;;;;6325166;27;20231;-53
2022/04/23 09:38:29;;;;;;;7.13;6.73;;;16.10;99.90;;;;;;6333429;28;20839;-54
2022/04/23 09:41:33;;;;;;;7.43;7.03;;;16.20;99.90;;;;;;6329240;28;20325;-55
2022/04/23 09:44:36;;;;;;;7.77;7.47;;;16.30;99.90;;;;;;6335504;27;20239;-56
2022/04/23 09:47:42;;;;;;;7.33;6.93;;;16.40;99.90;;;;;;6333582;27;20640;-55
2022/04/23 09:50:46;;;;;;;7.10;6.60;;;16.50;99.90;;;;;;6333783;27;20590;-54
2022/04/23 09:53:53;;;;;;;8.60;8.10;;;16.50;99.90;;;;;;6322791;28;20709;-55
2022/04/23 09:56:57;;;;;;;8.07;7.67;;;16.60;99.90;;;;;;6329199;28;20254;-54
2022/04/23 10:00:00;;;;;;;7.63;7.17;;;16.70;99.90;;;;;;6349580;27;20224;-55
2022/04/23 10:03:07;;;;;;;7.13;6.83;;;16.90;99.90;;;;;;6328686;27;20585;-55
2022/04/23 10:06:10;;;;;;;7.60;7.10;;;16.90;99.90;;;;;;6338137;27;20242;-55
2022/04/23 10:09:18;;;;;;;8.20;7.70;;;17.00;99.90;;;;;;6330339;28;20235;-55
2022/04/23 10:12:26;;;;;;;7.93;7.33;;;16.90;99.90;;;;;;6330431;27;20235;-56
2022/04/23 10:15:29;;;;;;;7.03;6.53;;;17.00;99.90;;;;;;6329130;28;20225;-55
2022/04/23 10:18:38;;;;;;;7.73;7.33;;;17.20;99.90;;;;;;6331052;28;20239;-55
2022/04/23 10:21:45;;;;;;;7.50;7.00;;;17.40;99.90;;;;;;6330683;28;20651;-54
2022/04/23 10:25:00;;;;;;;7.07;6.77;;;17.40;99.90;;;;;;6329739;28;20228;-55
2022/04/23 10:28:04;;;;;;;7.60;7.10;;;17.60;99.90;;;;;;6324597;28;20228;-59
2022/04/23 10:31:15;;;;;;;7.93;7.33;;;17.70;99.90;;;;;;6339008;27;20339;-55
2022/04/23 10:34:32;;;;;;;7.40;7.00;;;17.70;99.90;;;;;;6335168;27;20232;-55
2022/04/23 10:37:41;;;;;;;7.43;7.07;;;17.90;99.90;;;;;;6310133;28;20232;-55
2022/04/23 10:40:44;;;;;;;7.20;6.57;;;17.90;99.90;;;;;;6302591;28;20224;-53
2022/04/23 10:43:48;;;;;;;7.33;6.93;;;17.80;99.90;;;;;;6307941;28;20231;-54
2022/04/23 10:46:52;;;;;;;7.30;6.90;;;17.90;99.90;;;;;;6306904;28;20240;-55
2022/04/23 10:50:31;;;;;;;7.17;6.73;;;17.80;99.90;;;;;;6308387;28;20285;-55
2022/04/23 10:53:50;;;;;;;7.47;6.93;;;18.00;99.90;;;;;;6308952;27;20319;-56
2022/04/23 10:56:54;;;;;;;7.73;7.20;;;18.20;99.90;;;;;;6321407;27;20363;-54
2022/04/23 11:00:09;;;;;;;7.80;7.30;;;18.20;99.90;;;;;;6300744;28;20378;-56
2022/04/23 11:03:12;;;;;;;7.80;7.40;;;18.20;99.90;;;;;;6303511;28;20294;-55
2022/04/23 11:13:26;;;;;;;7.13;6.83;;;17.90;99.90;;;;;;6298996;28;20299;-55
2022/04/23 11:16:30;;;;;;;6.90;6.60;;;18.00;99.90;;;;;;6313401;28;20705;-53
2022/04/23 11:19:33;;;;;;;6.17;5.97;;;18.00;99.90;;;;;;6334197;28;20251;-54
2022/04/23 11:22:38;;;;;;;5.60;5.40;;;18.10;99.90;;;;;;6333541;28;20235;-54
2022/04/23 11:25:41;;;;;;;6.20;5.90;;;18.20;99.90;;;;;;6305173;28;20347;-52
2022/04/23 11:28:43;;;;;;;6.07;5.83;;;18.20;99.90;;;;;;6307490;28;20886;-53
2022/04/23 11:31:51;;;;;;;6.47;6.13;;;18.20;99.90;;;;;;6308963;28;20640;-54
2022/04/23 11:34:57;;;;;;;6.70;6.40;;;18.20;99.90;;;;;;6303712;28;20237;-55
2022/04/23 11:38:01;;;;;;;5.83;5.63;;;18.10;99.90;;;;;;6305087;28;20323;-55
2022/04/23 11:41:04;;;;;;;6.73;6.43;;;17.90;99.90;;;;;;6313118;27;20400;-55
2022/04/23 11:44:14;;;;;;;6.70;6.37;;;17.80;99.90;;;;;;6314326;28;20237;-55
2022/04/23 11:47:29;;;;;;;9.37;6.37;;;17.60;99.90;;;;;;6311313;28;20247;-56
2022/04/23 11:50:33;;;;;;;7.13;6.73;;;17.50;99.90;;;;;;6311686;28;20228;-55
2022/04/23 11:53:55;;;;;;;6.33;6.10;;;17.30;99.90;;;;;;6304689;28;20282;-55
2022/04/23 11:56:58;;;;;;;6.87;6.57;;;17.30;99.90;;;;;;6306135;28;20244;-55
2022/04/23 12:00:03;;;;;;;6.77;6.47;;;17.20;99.90;;;;;;6311202;28;20603;-53
2022/04/23 12:03:08;;;;;;;6.93;6.63;;;17.20;99.90;;;;;;6313689;28;20228;-55
2022/04/23 12:06:11;;;;;;;7.00;6.40;;;17.40;99.90;;;;;;6311227;28;20431;-54
2022/04/23 12:09:15;;;;;;;6.70;6.40;;;17.50;99.90;;;;;;6306071;28;20265;-54
2022/04/23 12:12:20;;;;;;;6.40;6.10;;;17.70;99.90;;;;;;6308781;27;20846;-54
2022/04/23 12:15:23;;;;;;;6.27;5.73;;;18.00;99.90;;;;;;6335438;28;20355;-55
2022/04/23 12:18:33;;;;;;;11.37;6.57;;;18.20;99.90;;;;;;6340361;27;20232;-55
2022/04/23 12:21:37;;;;;;;6.13;5.80;;;18.30;99.90;;;;;;6329952;27;20228;-54
2022/04/23 12:24:41;;;;;;;6.33;6.03;;;18.30;99.90;;;;;;6340585;27;20228;-54
2022/04/23 12:27:58;;;;;;;6.77;6.37;;;18.20;99.90;;;;;;6340684;27;20316;-54
2022/04/23 12:41:19;;;;;;;6.63;6.33;;;17.90;99.90;;;;;;6325661;27;20604;-54
2022/04/23 12:44:22;;;;;;;6.53;6.23;;;17.90;99.90;;;;;;6335840;27;20227;-55
2022/04/23 12:47:29;;;;;;;6.40;6.00;;;17.80;99.90;;;;;;6307437;28;20315;-54
2022/04/23 12:50:33;;;;;;;6.80;6.13;;;17.90;99.90;;;;;;6306548;28;20373;-54
2022/04/23 12:53:37;;;;;;;6.00;5.80;;;18.20;99.90;;;;;;6310093;28;20250;-56
2022/04/23 12:56:40;;;;;;;5.50;5.30;;;18.50;99.90;;;;;;6308036;28;20425;-55
2022/04/23 12:59:43;;;;;;;5.90;5.60;;;18.80;99.90;;;;;;6309136;28;20244;-55
2022/04/23 13:02:50;;;;;;;6.50;6.20;;;19.10;99.90;;;;;;6307159;28;20286;-55
2022/04/23 13:05:53;;;;;;;5.13;4.90;;;19.30;99.90;;;;;;6309131;28;20237;-53
2022/04/23 13:08:55;;;;;;;6.07;5.70;;;19.60;99.90;;;;;;6304871;28;20264;-55
2022/04/23 13:11:59;;;;;;;5.90;5.67;;;19.90;99.90;;;;;;6299927;28;20292;-56
2022/04/23 13:15:02;;;;;;;5.97;5.57;;;19.70;99.90;;;;;;6335395;27;20319;-55
2022/04/23 13:18:06;;;;;;;6.13;5.83;;;19.60;99.90;;;;;;6308505;28;20319;-53
2022/04/23 13:21:09;;;;;;;6.10;5.80;;;19.50;99.90;;;;;;6314356;27;20236;-55
2022/04/23 13:24:12;;;;;;;6.50;6.30;;;19.10;99.90;;;;;;6332615;27;20489;-59
2022/04/23 13:27:16;;;;;;;5.93;5.63;;;18.80;99.90;;;;;;6331956;27;20430;-55
2022/04/23 13:30:19;;;;;;;5.77;5.57;;;18.60;99.90;;;;;;6334694;27;20232;-55
2022/04/23 13:33:22;;;;;;;6.00;5.77;;;18.40;99.90;;;;;;6319663;27;20526;-54
2022/04/23 13:36:24;;;;;;;5.80;5.50;;;18.40;99.90;;;;;;6309649;28;20239;-55
2022/04/23 13:39:27;;;;;;;6.20;5.90;;;18.60;99.90;;;;;;6306157;28;20253;-54
2022/04/23 13:42:31;;;;;;;6.00;5.80;;;18.70;99.90;;;;;;6307142;28;20224;-55
2022/04/23 13:45:34;;;;;;;5.67;5.37;;;18.70;99.90;;;;;;6322176;27;20906;-55
2022/04/23 13:48:39;;;;;;;5.57;5.27;;;18.70;99.90;;;;;;6334452;28;20723;-54
2022/04/23 13:51:41;;;;;;;5.90;5.60;;;18.80;99.90;;;;;;6328935;27;20561;-56
2022/04/23 13:54:44;;;;;;;5.73;5.53;;;18.80;99.90;;;;;;6328895;28;21046;-54
2022/04/23 13:57:48;;;;;;;6.40;6.10;;;18.80;99.90;;;;;;6332740;27;20734;-55
2022/04/23 14:00:51;;;;;;;5.87;5.67;;;18.80;99.90;;;;;;6333930;28;20739;-54
2022/04/23 14:10:35;;;;;;;6.33;5.93;;;18.40;99.90;;;;;;6301556;28;20263;-51
2022/04/23 14:13:39;;;;;;;5.70;5.50;;;18.60;99.90;;;;;;6307110;28;20287;-53
2022/04/23 14:16:43;;;;;;;5.83;5.50;;;18.80;99.90;;;;;;6306241;28;20292;-54
2022/04/23 14:19:46;;;;;;;5.77;5.57;;;19.00;99.90;;;;;;6307732;28;20720;-54
2022/04/23 14:22:49;;;;;;;6.60;6.17;;;19.30;99.90;;;;;;6306635;28;20381;-56
2022/04/23 14:25:52;;;;;;;5.90;5.50;;;19.50;99.90;;;;;;6304281;28;20758;-54
2022/04/23 14:28:56;;;;;;;6.40;5.93;;;19.50;99.90;;;;;;6307721;28;20306;-55
2022/04/23 14:32:00;;;;;;;6.30;5.80;;;19.40;99.90;;;;;;6306287;28;20365;-53
2022/04/23 14:35:04;;;;;;;6.20;5.53;;;19.50;99.90;;;;;;6333122;28;22518;-55
2022/04/23 14:38:07;;;;;;;5.87;5.53;;;19.50;99.90;;;;;;6331593;28;20240;-56
2022/04/23 14:41:10;;;;;;;6.30;5.80;;;19.50;99.90;;;;;;6328053;28;20238;-54
2022/04/23 14:44:16;;;;;;;6.30;6.00;;;19.40;99.90;;;;;;6335701;27;20237;-55
2022/04/23 14:47:18;;;;;;;5.80;5.43;;;19.40;99.90;;;;;;6332675;27;20725;-55
2022/04/23 14:50:21;;;;;;;5.70;5.37;;;19.40;99.90;;;;;;6325832;28;20238;-55
2022/04/23 14:53:23;;;;;;;5.40;5.10;;;19.40;99.90;;;;;;6333502;27;20223;-54
2022/04/23 14:56:28;;;;;;;6.10;5.60;;;19.30;99.90;;;;;;6324169;28;20841;-55
2022/04/23 14:59:32;;;;;;;6.23;5.90;;;19.20;99.90;;;;;;6328575;28;20236;-53
2022/04/23 15:02:36;;;;;;;5.50;5.40;;;19.20;99.90;;;;;;6336709;27;20317;-53
2022/04/23 15:05:41;;;;;;;5.40;5.10;;;19.20;99.90;;;;;;6331051;28;20318;-54
2022/04/23 15:08:44;;;;;;;5.43;5.23;;;19.10;99.90;;;;;;6327916;28;20281;-54
2022/04/23 15:11:47;;;;;;;5.93;5.63;;;19.10;99.90;;;;;;6327665;28;20245;-49
2022/04/23 15:14:51;;;;;;;5.80;5.40;;;19.20;99.90;;;;;;6330727;28;20389;-53
2022/04/23 15:17:54;;;;;;;6.13;5.53;;;19.30;99.90;;;;;;6341785;27;20335;-53
2022/04/23 15:20:57;;;;;;;5.47;5.17;;;19.20;99.90;;;;;;6334755;27;20364;-54
2022/04/23 15:24:00;;;;;;;6.17;5.93;;;19.10;99.90;;;;;;6333750;27;20296;-54
2022/04/23 15:27:05;;;;;;;6.17;5.87;;;19.10;99.90;;;;;;6334138;27;20231;-54
2022/04/23 15:30:10;;;;;;;5.30;5.00;;;19.10;99.90;;;;;;6338473;27;20788;-56
2022/04/23 15:33:13;;;;;;;6.43;6.03;;;19.10;99.90;;;;;;6336230;27;20236;-55
2022/04/23 15:36:15;;;;;;;5.77;5.47;;;18.90;99.90;;;;;;6339509;27;20381;-55
2022/04/23 15:39:18;;;;;;;6.73;6.07;;;19.00;99.90;;;;;;6335618;28;20242;-56
2022/04/23 15:42:26;;;;;;;6.00;5.70;;;19.10;99.90;;;;;;6330662;27;20227;-54
2022/04/23 15:45:30;;;;;;;5.80;5.50;;;19.10;99.90;;;;;;6338710;27;20655;-54
2022/04/23 15:48:33;;;;;;;6.37;6.07;;;19.00;99.90;;;;;;6340636;27;20257;-55
2022/04/23 15:51:36;;;;;;;6.23;5.83;;;18.90;99.90;;;;;;6337842;27;20235;-55
2022/04/23 15:54:38;;;;;;;6.60;6.30;;;18.60;99.90;;;;;;6330347;27;20434;-54
2022/04/23 15:57:41;;;;;;;6.13;5.93;;;18.40;99.90;;;;;;6331970;28;20671;-54
2022/04/23 16:00:45;;;;;;;6.00;5.80;;;18.30;99.90;;;;;;6339378;27;20497;-54
2022/04/23 16:03:48;;;;;;;6.67;6.37;;;18.10;99.90;;;;;;6338871;27;20401;-54
2022/04/23 16:06:50;;;;;;;6.10;5.83;;;17.90;99.90;;;;;;6331922;28;20236;-54
2022/04/23 16:09:54;;;;;;;6.80;6.20;;;17.80;99.90;;;;;;6338080;27;20425;-55
2022/04/23 16:12:57;;;;;;;6.83;6.40;;;17.60;99.90;;;;;;6332245;28;20303;-55
2022/04/23 16:16:21;;;;;;;5.93;5.73;;;17.60;99.90;;;;;;6335882;27;20299;-55
2022/04/23 16:19:24;;;;;;;6.63;6.33;;;17.60;99.90;;;;;;6335805;27;20656;-53
2022/04/23 16:22:26;;;;;;;6.97;6.53;;;17.50;99.90;;;;;;6335993;27;20335;-57
2022/04/23 16:25:29;;;;;;;6.10;5.60;;;17.50;99.90;;;;;;6333482;27;20242;-53
2022/04/23 16:28:32;;;;;;;6.63;6.13;;;17.50;99.90;;;;;;6335199;28;20625;-55
2022/04/23 16:31:36;;;;;;;7.00;6.50;;;17.60;99.90;;;;;;6336864;28;20340;-54